METAR Data
IDs: Format: Raw Decoded Include TAF

Data at: 1403 UTC 20 Oct 2021

METAR for:KJCT (Junction/Kimble Cnty, TX, US)
Text:KJCT 201351Z AUTO 22009G15KT 10SM OVC021 22/17 A3012 RMK AO2 SLP166 T02170172
Temperature: 21.7°C ( 71°F)
Dewpoint: 17.2°C ( 63°F) [RH = 76%]
Pressure (altimeter):30.12 inches Hg (1020.1 mb) [Sea level pressure: 1016.6 mb]
Winds:from the SW (220 degrees) at 10 MPH (9 knots; 4.6 m/s) gusting to 17 MPH (15 knots; 7.7 m/s)
Visibility:10 or more sm (16+ km)
Ceiling:2100 feet AGL
Clouds: overcast cloud deck at 2100 feet AGL
QC Flag:automated observation with no human augmentation